sensor_id;sensor_type;location;lat;lon;timestamp;P1;durP1;ratioP1;P2;durP2;ratioP2
44854;SDS011;30591;48.228;16.398;2023-04-06T00:01:16;11.80;;;5.33;;
44854;SDS011;30591;48.228;16.398;2023-04-06T00:03:44;9.00;;;4.77;;
44854;SDS011;30591;48.228;16.398;2023-04-06T00:06:11;9.47;;;5.10;;
44854;SDS011;30591;48.228;16.398;2023-04-06T00:08:41;9.87;;;5.10;;
44854;SDS011;30591;48.228;16.398;2023-04-06T00:11:09;11.10;;;5.20;;
44854;SDS011;30591;48.228;16.398;2023-04-06T00:13:37;8.30;;;4.90;;
44854;SDS011;30591;48.228;16.398;2023-04-06T00:16:04;8.57;;;4.93;;
44854;SDS011;30591;48.228;16.398;2023-04-06T00:18:33;8.77;;;5.60;;
44854;SDS011;30591;48.228;16.398;2023-04-06T00:21:00;9.97;;;4.80;;
44854;SDS011;30591;48.228;16.398;2023-04-06T00:23:27;9.77;;;5.47;;
44854;SDS011;30591;48.228;16.398;2023-04-06T00:25:55;10.07;;;5.00;;
44854;SDS011;30591;48.228;16.398;2023-04-06T00:28:22;11.73;;;6.40;;
44854;SDS011;30591;48.228;16.398;2023-04-06T00:30:52;10.40;;;6.17;;
44854;SDS011;30591;48.228;16.398;2023-04-06T00:33:22;9.83;;;5.80;;
44854;SDS011;30591;48.228;16.398;2023-04-06T00:35:50;9.93;;;5.63;;
44854;SDS011;30591;48.228;16.398;2023-04-06T00:38:17;10.57;;;5.87;;
44854;SDS011;30591;48.228;16.398;2023-04-06T00:40:45;11.90;;;5.80;;
44854;SDS011;30591;48.228;16.398;2023-04-06T00:43:13;12.77;;;5.90;;
44854;SDS011;30591;48.228;16.398;2023-04-06T00:45:41;13.00;;;5.60;;
44854;SDS011;30591;48.228;16.398;2023-04-06T00:48:10;10.50;;;4.97;;
44854;SDS011;30591;48.228;16.398;2023-04-06T00:50:37;12.13;;;5.83;;
44854;SDS011;30591;48.228;16.398;2023-04-06T00:53:04;9.50;;;5.27;;
44854;SDS011;30591;48.228;16.398;2023-04-06T00:55:32;9.63;;;5.40;;
44854;SDS011;30591;48.228;16.398;2023-04-06T00:57:59;9.60;;;5.37;;
44854;SDS011;30591;48.228;16.398;2023-04-06T01:00:32;9.53;;;5.20;;
44854;SDS011;30591;48.228;16.398;2023-04-06T01:03:01;8.93;;;5.00;;
44854;SDS011;30591;48.228;16.398;2023-04-06T01:05:36;10.60;;;5.40;;
44854;SDS011;30591;48.228;16.398;2023-04-06T01:08:15;11.73;;;5.30;;
44854;SDS011;30591;48.228;16.398;2023-04-06T01:10:44;8.90;;;5.07;;
44854;SDS011;30591;48.228;16.398;2023-04-06T01:13:23;8.07;;;4.93;;
44854;SDS011;30591;48.228;16.398;2023-04-06T01:15:53;6.47;;;4.73;;
44854;SDS011;30591;48.228;16.398;2023-04-06T01:18:30;9.63;;;5.10;;
44854;SDS011;30591;48.228;16.398;2023-04-06T01:21:13;8.20;;;4.90;;
44854;SDS011;30591;48.228;16.398;2023-04-06T01:24:04;8.90;;;4.87;;
44854;SDS011;30591;48.228;16.398;2023-04-06T01:26:45;8.90;;;4.70;;
44854;SDS011;30591;48.228;16.398;2023-04-06T01:29:12;12.23;;;5.30;;
44854;SDS011;30591;48.228;16.398;2023-04-06T01:31:39;9.77;;;5.33;;
44854;SDS011;30591;48.228;16.398;2023-04-06T01:34:07;8.77;;;5.13;;
44854;SDS011;30591;48.228;16.398;2023-04-06T01:36:34;11.00;;;4.80;;
44854;SDS011;30591;48.228;16.398;2023-04-06T01:39:17;9.33;;;4.60;;
44854;SDS011;30591;48.228;16.398;2023-04-06T01:41:45;9.00;;;4.77;;
44854;SDS011;30591;48.228;16.398;2023-04-06T01:44:16;9.27;;;4.70;;
44854;SDS011;30591;48.228;16.398;2023-04-06T01:46:51;8.80;;;4.60;;
44854;SDS011;30591;48.228;16.398;2023-04-06T01:49:19;8.50;;;4.63;;
44854;SDS011;30591;48.228;16.398;2023-04-06T01:51:51;6.90;;;4.27;;
44854;SDS011;30591;48.228;16.398;2023-04-06T01:54:21;7.67;;;4.50;;
44854;SDS011;30591;48.228;16.398;2023-04-06T01:57:10;7.83;;;4.37;;
44854;SDS011;30591;48.228;16.398;2023-04-06T01:59:45;7.67;;;4.33;;
44854;SDS011;30591;48.228;16.398;2023-04-06T02:02:38;6.77;;;4.33;;
44854;SDS011;30591;48.228;16.398;2023-04-06T02:05:13;7.97;;;4.23;;
44854;SDS011;30591;48.228;16.398;2023-04-06T02:07:41;8.67;;;4.50;;
44854;SDS011;30591;48.228;16.398;2023-04-06T02:10:13;8.50;;;4.53;;
44854;SDS011;30591;48.228;16.398;2023-04-06T02:12:43;8.23;;;4.43;;
44854;SDS011;30591;48.228;16.398;2023-04-06T02:15:16;6.87;;;4.30;;
44854;SDS011;30591;48.228;16.398;2023-04-06T02:17:43;9.17;;;4.77;;
44854;SDS011;30591;48.228;16.398;2023-04-06T02:20:11;7.10;;;4.40;;
44854;SDS011;30591;48.228;16.398;2023-04-06T02:22:39;7.63;;;3.87;;
44854;SDS011;30591;48.228;16.398;2023-04-06T02:25:07;7.80;;;4.37;;
44854;SDS011;30591;48.228;16.398;2023-04-06T02:27:35;7.20;;;4.30;;
44854;SDS011;30591;48.228;16.398;2023-04-06T02:30:03;8.00;;;4.73;;
44854;SDS011;30591;48.228;16.398;2023-04-06T02:32:31;8.17;;;4.40;;
44854;SDS011;30591;48.228;16.398;2023-04-06T02:35:00;7.77;;;4.50;;
44854;SDS011;30591;48.228;16.398;2023-04-06T02:37:29;7.20;;;4.43;;
44854;SDS011;30591;48.228;16.398;2023-04-06T02:39:58;6.57;;;4.40;;
44854;SDS011;30591;48.228;16.398;2023-04-06T02:42:27;7.53;;;4.53;;
44854;SDS011;30591;48.228;16.398;2023-04-06T02:44:55;8.73;;;4.77;;
44854;SDS011;30591;48.228;16.398;2023-04-06T02:47:26;10.77;;;4.83;;
44854;SDS011;30591;48.228;16.398;2023-04-06T02:49:53;7.00;;;4.03;;
44854;SDS011;30591;48.228;16.398;2023-04-06T02:52:21;7.57;;;4.23;;
44854;SDS011;30591;48.228;16.398;2023-04-06T02:54:49;8.00;;;4.53;;
44854;SDS011;30591;48.228;16.398;2023-04-06T02:57:24;8.30;;;4.47;;
44854;SDS011;30591;48.228;16.398;2023-04-06T02:59:52;8.10;;;4.63;;
44854;SDS011;30591;48.228;16.398;2023-04-06T03:02:25;8.63;;;4.80;;
44854;SDS011;30591;48.228;16.398;2023-04-06T03:05:01;8.10;;;4.90;;
44854;SDS011;30591;48.228;16.398;2023-04-06T03:07:35;8.47;;;4.90;;
44854;SDS011;30591;48.228;16.398;2023-04-06T03:10:03;7.87;;;4.50;;
44854;SDS011;30591;48.228;16.398;2023-04-06T03:12:32;7.80;;;4.63;;
44854;SDS011;30591;48.228;16.398;2023-04-06T03:15:17;9.43;;;5.10;;
44854;SDS011;30591;48.228;16.398;2023-04-06T03:17:50;9.73;;;4.60;;
44854;SDS011;30591;48.228;16.398;2023-04-06T03:20:35;7.33;;;4.47;;
44854;SDS011;30591;48.228;16.398;2023-04-06T03:23:03;9.23;;;5.03;;
44854;SDS011;30591;48.228;16.398;2023-04-06T03:25:37;7.13;;;4.57;;
44854;SDS011;30591;48.228;16.398;2023-04-06T03:28:09;8.23;;;5.03;;
44854;SDS011;30591;48.228;16.398;2023-04-06T03:30:45;10.70;;;6.50;;
44854;SDS011;30591;48.228;16.398;2023-04-06T03:33:17;13.27;;;7.20;;
44854;SDS011;30591;48.228;16.398;2023-04-06T03:35:51;14.60;;;7.17;;
44854;SDS011;30591;48.228;16.398;2023-04-06T03:38:22;16.97;;;7.77;;
44854;SDS011;30591;48.228;16.398;2023-04-06T03:40:49;20.53;;;7.57;;
44854;SDS011;30591;48.228;16.398;2023-04-06T03:43:21;16.53;;;7.03;;
44854;SDS011;30591;48.228;16.398;2023-04-06T03:45:49;16.47;;;6.73;;
44854;SDS011;30591;48.228;16.398;2023-04-06T03:48:16;16.50;;;7.33;;
44854;SDS011;30591;48.228;16.398;2023-04-06T03:50:44;15.53;;;7.73;;
44854;SDS011;30591;48.228;16.398;2023-04-06T03:53:11;18.10;;;7.57;;
44854;SDS011;30591;48.228;16.398;2023-04-06T03:55:38;17.33;;;7.87;;
44854;SDS011;30591;48.228;16.398;2023-04-06T03:58:06;13.30;;;7.60;;
44854;SDS011;30591;48.228;16.398;2023-04-06T04:00:33;12.77;;;5.73;;
44854;SDS011;30591;48.228;16.398;2023-04-06T04:03:00;9.33;;;5.47;;
44854;SDS011;30591;48.228;16.398;2023-04-06T04:05:29;8.37;;;5.83;;
44854;SDS011;30591;48.228;16.398;2023-04-06T04:07:56;11.00;;;5.53;;
44854;SDS011;30591;48.228;16.398;2023-04-06T04:10:26;7.27;;;4.80;;
44854;SDS011;30591;48.228;16.398;2023-04-06T04:12:53;11.97;;;6.00;;
44854;SDS011;30591;48.228;16.398;2023-04-06T04:15:20;13.83;;;7.07;;
44854;SDS011;30591;48.228;16.398;2023-04-06T04:17:48;11.60;;;5.67;;
44854;SDS011;30591;48.228;16.398;2023-04-06T04:20:16;12.93;;;6.10;;
44854;SDS011;30591;48.228;16.398;2023-04-06T04:22:44;9.80;;;5.67;;
44854;SDS011;30591;48.228;16.398;2023-04-06T04:25:11;11.77;;;6.10;;
44854;SDS011;30591;48.228;16.398;2023-04-06T04:27:44;10.70;;;5.37;;
44854;SDS011;30591;48.228;16.398;2023-04-06T04:30:13;11.73;;;6.00;;
44854;SDS011;30591;48.228;16.398;2023-04-06T04:32:41;10.20;;;5.63;;
44854;SDS011;30591;48.228;16.398;2023-04-06T04:35:09;10.40;;;5.20;;
44854;SDS011;30591;48.228;16.398;2023-04-06T04:37:40;11.17;;;5.50;;
44854;SDS011;30591;48.228;16.398;2023-04-06T04:40:09;7.30;;;5.23;;
44854;SDS011;30591;48.228;16.398;2023-04-06T04:42:48;9.33;;;5.20;;
44854;SDS011;30591;48.228;16.398;2023-04-06T04:45:27;11.20;;;5.50;;
44854;SDS011;30591;48.228;16.398;2023-04-06T04:47:56;11.63;;;5.83;;
44854;SDS011;30591;48.228;16.398;2023-04-06T04:50:30;13.77;;;7.23;;
44854;SDS011;30591;48.228;16.398;2023-04-06T04:52:58;17.00;;;8.70;;
44854;SDS011;30591;48.228;16.398;2023-04-06T04:55:26;17.67;;;8.37;;
44854;SDS011;30591;48.228;16.398;2023-04-06T04:57:57;29.83;;;13.67;;
44854;SDS011;30591;48.228;16.398;2023-04-06T05:00:38;27.10;;;12.87;;
44854;SDS011;30591;48.228;16.398;2023-04-06T05:03:05;34.00;;;14.93;;
44854;SDS011;30591;48.228;16.398;2023-04-06T05:05:36;31.27;;;14.33;;
44854;SDS011;30591;48.228;16.398;2023-04-06T05:08:05;30.23;;;14.10;;
44854;SDS011;30591;48.228;16.398;2023-04-06T05:10:41;22.97;;;11.37;;
44854;SDS011;30591;48.228;16.398;2023-04-06T05:13:09;29.10;;;12.30;;
44854;SDS011;30591;48.228;16.398;2023-04-06T05:15:36;35.90;;;15.73;;
44854;SDS011;30591;48.228;16.398;2023-04-06T05:18:18;29.40;;;13.53;;
44854;SDS011;30591;48.228;16.398;2023-04-06T05:20:46;36.20;;;16.90;;
44854;SDS011;30591;48.228;16.398;2023-04-06T05:23:14;30.77;;;15.20;;
44854;SDS011;30591;48.228;16.398;2023-04-06T05:25:42;37.20;;;17.70;;
44854;SDS011;30591;48.228;16.398;2023-04-06T05:28:18;37.07;;;17.00;;
44854;SDS011;30591;48.228;16.398;2023-04-06T05:30:45;23.43;;;12.47;;
44854;SDS011;30591;48.228;16.398;2023-04-06T05:33:14;15.80;;;9.13;;
44854;SDS011;30591;48.228;16.398;2023-04-06T05:36:02;16.87;;;9.20;;
44854;SDS011;30591;48.228;16.398;2023-04-06T05:38:30;12.97;;;8.87;;
44854;SDS011;30591;48.228;16.398;2023-04-06T05:41:07;15.13;;;8.97;;
44854;SDS011;30591;48.228;16.398;2023-04-06T05:43:36;15.27;;;9.20;;
44854;SDS011;30591;48.228;16.398;2023-04-06T05:46:03;16.57;;;9.30;;
44854;SDS011;30591;48.228;16.398;2023-04-06T05:48:31;14.87;;;9.30;;
44854;SDS011;30591;48.228;16.398;2023-04-06T05:51:00;15.73;;;8.60;;
44854;SDS011;30591;48.228;16.398;2023-04-06T05:53:37;14.20;;;9.13;;
44854;SDS011;30591;48.228;16.398;2023-04-06T05:56:05;15.13;;;9.23;;
44854;SDS011;30591;48.228;16.398;2023-04-06T05:58:34;15.20;;;9.87;;
44854;SDS011;30591;48.228;16.398;2023-04-06T06:01:02;14.80;;;9.00;;
44854;SDS011;30591;48.228;16.398;2023-04-06T06:03:38;14.70;;;8.57;;
44854;SDS011;30591;48.228;16.398;2023-04-06T06:06:06;16.67;;;9.17;;
44854;SDS011;30591;48.228;16.398;2023-04-06T06:08:57;14.87;;;9.00;;
44854;SDS011;30591;48.228;16.398;2023-04-06T06:11:31;14.47;;;9.23;;
44854;SDS011;30591;48.228;16.398;2023-04-06T06:14:01;19.43;;;9.10;;
44854;SDS011;30591;48.228;16.398;2023-04-06T06:16:33;11.83;;;7.83;;
44854;SDS011;30591;48.228;16.398;2023-04-06T06:19:01;13.07;;;8.83;;
44854;SDS011;30591;48.228;16.398;2023-04-06T06:21:30;11.93;;;8.30;;
44854;SDS011;30591;48.228;16.398;2023-04-06T06:23:58;12.33;;;8.77;;
44854;SDS011;30591;48.228;16.398;2023-04-06T11:52:13;12.53;;;9.10;;
44854;SDS011;30591;48.228;16.398;2023-04-06T11:54:45;13.77;;;9.03;;
44854;SDS011;30591;48.228;16.398;2023-04-06T11:57:14;10.02;;;7.90;;
44854;SDS011;30591;48.228;16.398;2023-04-06T11:59:43;6.82;;;5.18;;
44854;SDS011;30591;48.228;16.398;2023-04-06T12:02:10;10.00;;;7.63;;
44854;SDS011;30591;48.228;16.398;2023-04-06T12:04:38;5.40;;;4.68;;
44854;SDS011;30591;48.228;16.398;2023-04-06T12:07:06;4.68;;;4.32;;
44854;SDS011;30591;48.228;16.398;2023-04-06T12:09:33;12.93;;;10.32;;
44854;SDS011;30591;48.228;16.398;2023-04-06T12:12:03;6.10;;;5.43;;
44854;SDS011;30591;48.228;16.398;2023-04-06T12:14:30;12.50;;;9.98;;
44854;SDS011;30591;48.228;16.398;2023-04-06T12:16:58;5.82;;;4.88;;
44854;SDS011;30591;48.228;16.398;2023-04-06T12:19:25;11.93;;;9.23;;
44854;SDS011;30591;48.228;16.398;2023-04-06T12:21:53;9.63;;;7.07;;
44854;SDS011;30591;48.228;16.398;2023-04-06T12:24:21;8.67;;;5.80;;
44854;SDS011;30591;48.228;16.398;2023-04-06T12:26:48;8.20;;;6.57;;
44854;SDS011;30591;48.228;16.398;2023-04-06T12:29:25;6.90;;;6.13;;
44854;SDS011;30591;48.228;16.398;2023-04-06T12:31:52;5.87;;;5.27;;
44854;SDS011;30591;48.228;16.398;2023-04-06T12:34:20;6.70;;;6.10;;
44854;SDS011;30591;48.228;16.398;2023-04-06T12:36:47;6.20;;;5.10;;
44854;SDS011;30591;48.228;16.398;2023-04-06T12:39:15;6.88;;;4.95;;
44854;SDS011;30591;48.228;16.398;2023-04-06T12:41:45;6.25;;;4.97;;
44854;SDS011;30591;48.228;16.398;2023-04-06T12:44:13;7.90;;;5.10;;
44854;SDS011;30591;48.228;16.398;2023-04-06T12:46:40;5.95;;;5.35;;
44854;SDS011;30591;48.228;16.398;2023-04-06T12:49:08;6.10;;;5.38;;
44854;SDS011;30591;48.228;16.398;2023-04-06T12:51:35;5.68;;;4.88;;
44854;SDS011;30591;48.228;16.398;2023-04-06T12:54:02;7.65;;;5.22;;
44854;SDS011;30591;48.228;16.398;2023-04-06T12:56:30;7.45;;;5.60;;
44854;SDS011;30591;48.228;16.398;2023-04-06T12:58:57;5.85;;;5.22;;
44854;SDS011;30591;48.228;16.398;2023-04-06T13:01:25;5.30;;;4.80;;
44854;SDS011;30591;48.228;16.398;2023-04-06T13:03:55;10.75;;;8.00;;
44854;SDS011;30591;48.228;16.398;2023-04-06T13:06:24;7.55;;;5.82;;
44854;SDS011;30591;48.228;16.398;2023-04-06T13:08:54;7.30;;;5.25;;
44854;SDS011;30591;48.228;16.398;2023-04-06T13:11:22;5.32;;;4.82;;
44854;SDS011;30591;48.228;16.398;2023-04-06T13:13:53;5.10;;;4.70;;
44854;SDS011;30591;48.228;16.398;2023-04-06T13:16:21;4.53;;;4.13;;
44854;SDS011;30591;48.228;16.398;2023-04-06T13:18:48;4.55;;;4.15;;
44854;SDS011;30591;48.228;16.398;2023-04-06T13:21:16;6.18;;;4.03;;
44854;SDS011;30591;48.228;16.398;2023-04-06T13:23:45;4.07;;;3.72;;
44854;SDS011;30591;48.228;16.398;2023-04-06T13:26:12;4.25;;;3.95;;
44854;SDS011;30591;48.228;16.398;2023-04-06T13:28:41;6.28;;;4.00;;
44854;SDS011;30591;48.228;16.398;2023-04-06T13:31:09;4.80;;;3.88;;
44854;SDS011;30591;48.228;16.398;2023-04-06T13:33:36;5.78;;;4.72;;
44854;SDS011;30591;48.228;16.398;2023-04-06T13:36:07;4.82;;;4.20;;
44854;SDS011;30591;48.228;16.398;2023-04-06T13:38:35;4.63;;;4.15;;
44854;SDS011;30591;48.228;16.398;2023-04-06T13:41:05;4.43;;;4.10;;
44854;SDS011;30591;48.228;16.398;2023-04-06T13:43:32;4.50;;;4.10;;
44854;SDS011;30591;48.228;16.398;2023-04-06T13:46:00;4.50;;;4.10;;
44854;SDS011;30591;48.228;16.398;2023-04-06T13:48:28;4.65;;;4.25;;
44854;SDS011;30591;48.228;16.398;2023-04-06T13:50:55;4.55;;;4.15;;
44854;SDS011;30591;48.228;16.398;2023-04-06T13:53:22;9.85;;;6.20;;
44854;SDS011;30591;48.228;16.398;2023-04-06T13:55:53;4.45;;;4.05;;
44854;SDS011;30591;48.228;16.398;2023-04-06T13:58:22;4.68;;;4.18;;
44854;SDS011;30591;48.228;16.398;2023-04-06T14:00:49;5.10;;;4.30;;
44854;SDS011;30591;48.228;16.398;2023-04-06T14:03:17;4.20;;;3.88;;
44854;SDS011;30591;48.228;16.398;2023-04-06T14:05:46;4.13;;;3.72;;
44854;SDS011;30591;48.228;16.398;2023-04-06T14:08:13;4.40;;;4.00;;
44854;SDS011;30591;48.228;16.398;2023-04-06T14:10:41;17.52;;;7.40;;
44854;SDS011;30591;48.228;16.398;2023-04-06T14:13:09;4.55;;;4.15;;
44854;SDS011;30591;48.228;16.398;2023-04-06T14:15:37;4.57;;;4.22;;
44854;SDS011;30591;48.228;16.398;2023-04-06T14:18:04;4.35;;;3.97;;
44854;SDS011;30591;48.228;16.398;2023-04-06T14:20:32;4.53;;;4.13;;
44854;SDS011;30591;48.228;16.398;2023-04-06T14:23:01;4.47;;;4.10;;
44854;SDS011;30591;48.228;16.398;2023-04-06T14:25:28;4.28;;;3.88;;
44854;SDS011;30591;48.228;16.398;2023-04-06T14:27:58;6.75;;;6.03;;
44854;SDS011;30591;48.228;16.398;2023-04-06T14:30:26;4.82;;;4.43;;
44854;SDS011;30591;48.228;16.398;2023-04-06T14:32:58;4.72;;;4.32;;
44854;SDS011;30591;48.228;16.398;2023-04-06T14:35:26;4.28;;;3.95;;
44854;SDS011;30591;48.228;16.398;2023-04-06T14:37:55;6.03;;;4.80;;
44854;SDS011;30591;48.228;16.398;2023-04-06T14:40:25;4.00;;;3.60;;
44854;SDS011;30591;48.228;16.398;2023-04-06T14:42:53;4.47;;;4.07;;
44854;SDS011;30591;48.228;16.398;2023-04-06T14:45:22;4.43;;;3.60;;
44854;SDS011;30591;48.228;16.398;2023-04-06T14:47:49;4.32;;;3.90;;
44854;SDS011;30591;48.228;16.398;2023-04-06T14:50:17;4.35;;;3.95;;
44854;SDS011;30591;48.228;16.398;2023-04-06T14:52:44;4.53;;;4.13;;
44854;SDS011;30591;48.228;16.398;2023-04-06T14:55:13;4.80;;;4.30;;
44854;SDS011;30591;48.228;16.398;2023-04-06T14:57:40;3.72;;;3.42;;
44854;SDS011;30591;48.228;16.398;2023-04-06T15:00:08;4.20;;;3.80;;
44854;SDS011;30591;48.228;16.398;2023-04-06T15:02:36;5.55;;;3.50;;
44854;SDS011;30591;48.228;16.398;2023-04-06T15:05:04;7.55;;;4.50;;
44854;SDS011;30591;48.228;16.398;2023-04-06T15:07:32;4.65;;;4.15;;
44854;SDS011;30591;48.228;16.398;2023-04-06T15:09:59;4.88;;;4.13;;
44854;SDS011;30591;48.228;16.398;2023-04-06T15:12:26;4.38;;;3.97;;
44854;SDS011;30591;48.228;16.398;2023-04-06T15:14:55;6.60;;;4.30;;
44854;SDS011;30591;48.228;16.398;2023-04-06T15:17:23;4.60;;;4.20;;
44854;SDS011;30591;48.228;16.398;2023-04-06T15:19:53;4.07;;;3.63;;
44854;SDS011;30591;48.228;16.398;2023-04-06T15:22:21;5.00;;;4.03;;
44854;SDS011;30591;48.228;16.398;2023-04-06T15:24:48;6.30;;;4.80;;
44854;SDS011;30591;48.228;16.398;2023-04-06T15:27:15;7.13;;;4.07;;
44854;SDS011;30591;48.228;16.398;2023-04-06T15:29:43;6.20;;;4.60;;
44854;SDS011;30591;48.228;16.398;2023-04-06T15:32:10;7.67;;;5.60;;
44854;SDS011;30591;48.228;16.398;2023-04-06T15:34:38;6.70;;;4.43;;
44854;SDS011;30591;48.228;16.398;2023-04-06T15:37:05;6.10;;;4.27;;
44854;SDS011;30591;48.228;16.398;2023-04-06T15:39:33;5.53;;;4.47;;
44854;SDS011;30591;48.228;16.398;2023-04-06T15:42:02;7.30;;;4.60;;
44854;SDS011;30591;48.228;16.398;2023-04-06T15:44:30;5.43;;;4.20;;
44854;SDS011;30591;48.228;16.398;2023-04-06T15:46:57;6.13;;;4.10;;
44854;SDS011;30591;48.228;16.398;2023-04-06T15:49:25;7.13;;;4.33;;
44854;SDS011;30591;48.228;16.398;2023-04-06T15:51:53;6.63;;;4.70;;
44854;SDS011;30591;48.228;16.398;2023-04-06T15:54:20;8.17;;;4.83;;
44854;SDS011;30591;48.228;16.398;2023-04-06T15:56:48;6.93;;;5.20;;
44854;SDS011;30591;48.228;16.398;2023-04-06T15:59:16;10.47;;;5.53;;
44854;SDS011;30591;48.228;16.398;2023-04-06T16:01:44;8.40;;;5.40;;
44854;SDS011;30591;48.228;16.398;2023-04-06T16:04:13;10.47;;;5.57;;
44854;SDS011;30591;48.228;16.398;2023-04-06T16:06:40;7.37;;;5.90;;
44854;SDS011;30591;48.228;16.398;2023-04-06T16:09:08;8.63;;;6.43;;
44854;SDS011;30591;48.228;16.398;2023-04-06T16:11:35;6.87;;;4.93;;
44854;SDS011;30591;48.228;16.398;2023-04-06T16:14:02;8.70;;;5.50;;
44854;SDS011;30591;48.228;16.398;2023-04-06T16:16:30;16.90;;;11.13;;
44854;SDS011;30591;48.228;16.398;2023-04-06T16:18:58;8.57;;;6.90;;
44854;SDS011;30591;48.228;16.398;2023-04-06T16:21:25;7.93;;;5.50;;
44854;SDS011;30591;48.228;16.398;2023-04-06T16:23:53;7.07;;;5.33;;
44854;SDS011;30591;48.228;16.398;2023-04-06T16:26:22;7.17;;;4.77;;
44854;SDS011;30591;48.228;16.398;2023-04-06T16:28:50;8.33;;;5.30;;
44854;SDS011;30591;48.228;16.398;2023-04-06T16:31:21;8.10;;;5.00;;
44854;SDS011;30591;48.228;16.398;2023-04-06T16:33:54;8.97;;;5.70;;
44854;SDS011;30591;48.228;16.398;2023-04-06T16:36:26;5.40;;;4.40;;
44854;SDS011;30591;48.228;16.398;2023-04-06T16:38:55;7.03;;;4.83;;
44854;SDS011;30591;48.228;16.398;2023-04-06T16:41:24;5.40;;;4.83;;
44854;SDS011;30591;48.228;16.398;2023-04-06T16:43:53;5.37;;;4.50;;
44854;SDS011;30591;48.228;16.398;2023-04-06T16:46:30;4.77;;;4.17;;
44854;SDS011;30591;48.228;16.398;2023-04-06T16:48:58;5.93;;;4.97;;
44854;SDS011;30591;48.228;16.398;2023-04-06T16:51:27;5.73;;;4.40;;
44854;SDS011;30591;48.228;16.398;2023-04-06T16:53:55;6.80;;;4.80;;
44854;SDS011;30591;48.228;16.398;2023-04-06T16:56:22;5.97;;;4.43;;
44854;SDS011;30591;48.228;16.398;2023-04-06T16:58:49;6.73;;;5.10;;
44854;SDS011;30591;48.228;16.398;2023-04-06T17:01:18;8.53;;;4.87;;
44854;SDS011;30591;48.228;16.398;2023-04-06T17:03:47;8.90;;;4.90;;
44854;SDS011;30591;48.228;16.398;2023-04-06T17:06:15;5.57;;;3.90;;
44854;SDS011;30591;48.228;16.398;2023-04-06T17:08:43;6.10;;;4.33;;
44854;SDS011;30591;48.228;16.398;2023-04-06T17:11:12;6.47;;;4.37;;
